Time;durP1;ratioP1;P1;durP2;ratioP2;P2;SDS_P1;SDS_P2;PMS_P1;PMS_P2;Temp;Humidity;BMP_temperature;BMP_pressure;BME280_temperature;BME280_humidity;BME280_pressure;Samples;Min_cycle;Max_cycle;Signal;HPM_P1;HPM_P2
2022/07/26 00:01:05;;;;;;;16.88;4.25;;;18.80;99.90;;;;;;5118793;27;20030;-66
2022/07/26 00:03:31;;;;;;;13.38;3.92;;;18.60;99.90;;;;;;5136836;27;20027;-66
2022/07/26 00:05:58;;;;;;;17.85;3.80;;;18.60;99.90;;;;;;5136474;27;20023;-66
2022/07/26 00:08:24;;;;;;;18.05;3.50;;;18.60;99.90;;;;;;5136581;27;20387;-66
2022/07/26 00:10:50;;;;;;;16.55;4.25;;;18.90;99.90;;;;;;5136656;27;20046;-66
2022/07/26 00:13:20;;;;;;;15.25;3.88;;;18.60;99.90;;;;;;5136650;27;20479;-66
2022/07/26 00:15:48;;;;;;;21.10;4.07;;;18.50;99.90;;;;;;5136772;27;20027;-66
2022/07/26 00:18:14;;;;;;;23.02;3.85;;;18.60;99.90;;;;;;5135913;27;20038;-67
2022/07/26 00:20:41;;;;;;;24.63;4.00;;;18.40;99.90;;;;;;5117130;27;20467;-66
2022/07/26 00:23:06;;;;;;;25.70;5.10;;;18.60;99.90;;;;;;5136432;27;20035;-66
2022/07/26 00:25:32;;;;;;;19.30;3.85;;;18.60;99.90;;;;;;5113035;22;20488;-66
2022/07/26 00:27:59;;;;;;;18.23;3.50;;;18.70;99.90;;;;;;5095682;28;20482;-74
2022/07/26 00:30:25;;;;;;;15.18;3.72;;;18.50;99.90;;;;;;5094997;28;20095;-72
2022/07/26 00:32:51;;;;;;;24.45;4.63;;;18.70;99.90;;;;;;5095309;28;20039;-70
2022/07/26 00:35:18;;;;;;;18.08;4.15;;;18.60;99.90;;;;;;5094606;28;20012;-63
2022/07/26 00:37:45;;;;;;;19.60;4.72;;;18.60;99.90;;;;;;5094897;28;20040;-72
2022/07/26 00:40:12;;;;;;;25.73;4.30;;;18.70;99.90;;;;;;5094988;28;20052;-72
2022/07/26 00:42:38;;;;;;;22.98;4.45;;;18.60;99.90;;;;;;5094835;28;20024;-73
2022/07/26 00:45:08;;;;;;;15.90;4.65;;;18.80;99.90;;;;;;5094845;28;20015;-67
2022/07/26 00:47:34;;;;;;;21.23;3.95;;;18.60;99.90;;;;;;5100585;28;20090;-73
2022/07/26 00:50:00;;;;;;;18.83;4.45;;;18.70;99.90;;;;;;5094600;28;20016;-73
2022/07/26 00:52:25;;;;;;;23.67;4.30;;;18.80;99.90;;;;;;5094733;28;20462;-72
2022/07/26 00:54:53;;;;;;;27.92;4.32;;;18.90;99.90;;;;;;5094761;28;20032;-72
2022/07/26 00:57:21;;;;;;;17.95;4.20;;;19.00;99.90;;;;;;5094501;28;20041;-72
2022/07/26 00:59:47;;;;;;;23.33;4.50;;;19.00;99.90;;;;;;5094635;28;20038;-73
2022/07/26 01:02:14;;;;;;;22.10;4.07;;;18.90;99.90;;;;;;5076362;28;20468;-68
2022/07/26 01:04:43;;;;;;;18.52;4.65;;;18.80;99.90;;;;;;5094115;28;20065;-72
2022/07/26 01:07:09;;;;;;;21.00;4.45;;;18.70;99.90;;;;;;5094513;28;20028;-66
2022/07/26 01:09:36;;;;;;;20.13;4.65;;;18.90;99.90;;;;;;5094179;28;20032;-68
2022/07/26 01:12:02;;;;;;;27.15;4.40;;;19.00;99.90;;;;;;5094373;28;20027;-73
2022/07/26 01:14:28;;;;;;;21.50;5.00;;;18.80;99.90;;;;;;5094297;28;20479;-73
2022/07/26 01:16:54;;;;;;;16.15;3.58;;;18.90;99.90;;;;;;5094095;28;20024;-72
2022/07/26 01:19:20;;;;;;;20.30;4.13;;;18.90;99.90;;;;;;5085350;28;20047;-73
2022/07/26 01:21:47;;;;;;;25.40;4.32;;;18.90;99.90;;;;;;5067786;28;20024;-72
2022/07/26 01:24:13;;;;;;;20.80;4.53;;;19.20;99.90;;;;;;5083776;28;20178;-73
2022/07/26 01:26:38;;;;;;;26.67;4.90;;;19.50;99.90;;;;;;5075696;28;20110;-72
2022/07/26 01:29:04;;;;;;;22.00;4.43;;;19.50;99.90;;;;;;5094080;28;20030;-72
2022/07/26 01:31:30;;;;;;;31.70;5.22;;;19.60;99.90;;;;;;5093647;28;20034;-72
2022/07/26 01:33:56;;;;;;;27.15;5.90;;;19.30;99.90;;;;;;5093867;28;20058;-72
2022/07/26 01:36:21;;;;;;;26.73;4.80;;;19.10;99.90;;;;;;5093608;28;20057;-65
2022/07/26 01:38:47;;;;;;;25.80;4.97;;;19.20;99.90;;;;;;5093759;28;20036;-72
2022/07/26 01:41:13;;;;;;;21.65;4.82;;;19.00;99.90;;;;;;5093926;28;20031;-64
2022/07/26 01:43:39;;;;;;;22.05;4.70;;;18.70;99.90;;;;;;5093652;28;20546;-66
2022/07/26 01:46:07;;;;;;;24.00;5.70;;;18.70;99.90;;;;;;5093705;28;20052;-68
2022/07/26 01:48:33;;;;;;;23.42;4.75;;;18.80;99.90;;;;;;5075618;28;20044;-63
2022/07/26 01:51:00;;;;;;;26.92;5.47;;;18.70;99.90;;;;;;5093594;28;20063;-63
2022/07/26 01:53:25;;;;;;;25.20;6.03;;;18.90;99.90;;;;;;5072426;28;20051;-66
2022/07/26 01:55:51;;;;;;;22.95;5.63;;;18.80;99.90;;;;;;5069630;28;20024;-65
2022/07/26 01:58:17;;;;;;;32.78;6.72;;;18.80;99.90;;;;;;5093303;28;20066;-63
2022/07/26 02:00:43;;;;;;;22.98;5.68;;;18.70;99.90;;;;;;5093734;28;20032;-65
2022/07/26 02:03:09;;;;;;;20.67;5.88;;;18.80;99.90;;;;;;5074971;28;20016;-73
2022/07/26 02:05:35;;;;;;;22.33;5.20;;;18.60;99.90;;;;;;5093538;28;20491;-68
2022/07/26 02:08:01;;;;;;;21.65;6.00;;;18.50;99.90;;;;;;5092922;28;20055;-72
2022/07/26 02:13:12;;;;;;;29.75;5.82;;;18.80;99.90;;;;;;5093296;28;20439;-73
2022/07/26 02:15:38;;;;;;;34.67;6.72;;;18.80;99.90;;;;;;5093264;28;20028;-71
2022/07/26 02:18:04;;;;;;;26.92;6.03;;;18.70;99.90;;;;;;5092619;28;20046;-73
2022/07/26 02:20:32;;;;;;;20.83;5.43;;;18.80;99.90;;;;;;5093203;28;20096;-73
2022/07/26 02:23:02;;;;;;;24.80;6.57;;;18.70;99.90;;;;;;5093115;28;20017;-71
2022/07/26 02:25:28;;;;;;;22.95;5.35;;;18.60;99.90;;;;;;5065307;28;20032;-72
2022/07/26 02:27:55;;;;;;;26.05;6.07;;;18.70;99.90;;;;;;5075309;28;20404;-71
2022/07/26 02:30:21;;;;;;;30.33;6.90;;;18.70;99.90;;;;;;5092902;28;20042;-71
2022/07/26 02:32:46;;;;;;;32.00;7.18;;;18.60;99.90;;;;;;5092738;28;20105;-70
2022/07/26 02:35:12;;;;;;;33.13;7.65;;;18.40;99.90;;;;;;5092812;28;20056;-72
2022/07/26 02:37:41;;;;;;;30.92;6.32;;;18.50;99.90;;;;;;5092763;28;20109;-72
2022/07/26 02:40:07;;;;;;;24.58;6.50;;;18.50;99.90;;;;;;5093123;28;20024;-72
2022/07/26 02:42:33;;;;;;;29.10;6.82;;;18.60;99.90;;;;;;5092082;28;20543;-71
2022/07/26 02:44:59;;;;;;;27.92;7.13;;;18.70;99.90;;;;;;5092689;28;20103;-72
2022/07/26 02:47:25;;;;;;;25.33;6.30;;;18.90;99.90;;;;;;5092676;28;20032;-72
2022/07/26 02:49:51;;;;;;;28.30;7.72;;;18.50;99.90;;;;;;5093124;28;20048;-69
2022/07/26 02:52:17;;;;;;;30.10;7.97;;;18.70;99.90;;;;;;5088965;28;20016;-72
2022/07/26 02:54:43;;;;;;;30.20;8.30;;;18.90;99.90;;;;;;5092696;28;20353;-72
2022/07/26 02:57:09;;;;;;;27.80;6.88;;;18.70;99.90;;;;;;5092723;28;20043;-70
2022/07/26 02:59:35;;;;;;;32.47;7.50;;;18.70;99.90;;;;;;5082701;28;20036;-70
2022/07/26 03:02:00;;;;;;;31.70;7.15;;;18.70;99.90;;;;;;5072141;28;20024;-70
2022/07/26 03:04:26;;;;;;;31.35;7.93;;;18.90;99.90;;;;;;5054320;28;20036;-72
2022/07/26 03:06:52;;;;;;;38.78;8.85;;;19.00;99.90;;;;;;5072528;28;20036;-63
2022/07/26 03:09:18;;;;;;;32.00;7.47;;;18.90;99.90;;;;;;5072657;28;20017;-71
2022/07/26 03:11:43;;;;;;;28.42;7.75;;;18.90;99.90;;;;;;5076086;28;20035;-70
2022/07/26 03:14:09;;;;;;;37.28;9.10;;;18.60;99.90;;;;;;5072181;28;20024;-71
2022/07/26 03:16:35;;;;;;;33.45;7.85;;;18.70;99.90;;;;;;5072196;28;20400;-72
2022/07/26 03:19:00;;;;;;;30.13;8.07;;;18.80;99.90;;;;;;5072618;28;20453;-71
2022/07/26 03:21:27;;;;;;;40.53;8.18;;;18.90;99.90;;;;;;5072448;28;20027;-72
2022/07/26 03:23:53;;;;;;;30.63;8.48;;;18.90;99.90;;;;;;5071966;28;20111;-72
2022/07/26 03:26:19;;;;;;;31.10;7.75;;;19.00;99.90;;;;;;5072533;28;20113;-66
2022/07/26 03:28:45;;;;;;;39.22;7.85;;;19.00;99.90;;;;;;5071714;28;20437;-64
2022/07/26 03:31:11;;;;;;;33.45;8.20;;;18.80;99.90;;;;;;5072727;28;20048;-73
2022/07/26 03:33:38;;;;;;;32.80;7.65;;;18.90;99.90;;;;;;5078085;28;20032;-73
2022/07/26 03:36:05;;;;;;;31.52;7.75;;;18.70;99.90;;;;;;5072168;28;20027;-72
2022/07/26 03:38:30;;;;;;;26.00;7.50;;;18.70;99.90;;;;;;5071955;28;20068;-72
2022/07/26 03:40:56;;;;;;;26.40;6.78;;;18.60;99.90;;;;;;5072428;28;20051;-69
2022/07/26 03:43:22;;;;;;;23.02;7.30;;;18.60;99.90;;;;;;5072129;28;20028;-71
2022/07/26 03:45:48;;;;;;;20.80;6.55;;;18.50;99.90;;;;;;5071820;28;20020;-72
2022/07/26 03:48:14;;;;;;;26.98;8.35;;;18.60;99.90;;;;;;5072167;28;20090;-72
2022/07/26 03:50:40;;;;;;;20.27;6.00;;;18.50;99.90;;;;;;5072136;28;20017;-72
2022/07/26 03:53:05;;;;;;;23.73;6.70;;;18.40;99.90;;;;;;5072734;28;20587;-72
2022/07/26 03:58:17;;;;;;;25.52;7.00;;;19.00;99.90;;;;;;5075074;28;20439;-72
2022/07/26 04:00:44;;;;;;;34.17;6.72;;;18.80;99.90;;;;;;5075621;28;20373;-70
2022/07/26 04:03:09;;;;;;;34.58;7.50;;;18.90;99.90;;;;;;5075805;28;20029;-72
2022/07/26 04:05:35;;;;;;;29.50;7.32;;;18.70;99.90;;;;;;5075106;28;20391;-68
2022/07/26 04:08:01;;;;;;;30.50;6.97;;;19.00;99.90;;;;;;5074598;28;20012;-71
2022/07/26 04:10:26;;;;;;;28.20;6.38;;;18.80;99.90;;;;;;5074826;28;20043;-72
2022/07/26 04:12:52;;;;;;;23.17;6.88;;;19.20;99.90;;;;;;5075182;28;20096;-71
2022/07/26 04:15:20;;;;;;;30.98;7.90;;;19.50;99.90;;;;;;5057336;28;20117;-64
2022/07/26 04:17:47;;;;;;;27.27;6.95;;;19.10;99.90;;;;;;5075002;28;20154;-72
2022/07/26 04:20:13;;;;;;;22.52;6.47;;;19.30;99.90;;;;;;5075185;28;20036;-72
2022/07/26 04:22:40;;;;;;;25.63;7.13;;;19.00;99.90;;;;;;5075268;28;20561;-73
2022/07/26 04:25:07;;;;;;;24.95;6.30;;;19.00;99.90;;;;;;5074768;28;20049;-71
2022/07/26 04:27:33;;;;;;;23.65;5.80;;;19.00;99.90;;;;;;5074728;28;20029;-70
2022/07/26 04:29:59;;;;;;;22.67;5.68;;;19.10;99.90;;;;;;5074888;28;20019;-72
2022/07/26 04:32:25;;;;;;;26.08;6.65;;;19.30;99.90;;;;;;5075053;28;20036;-71
2022/07/26 04:34:50;;;;;;;24.02;6.68;;;19.30;99.90;;;;;;5074750;28;20035;-71
2022/07/26 04:37:16;;;;;;;18.50;5.80;;;19.30;99.90;;;;;;5075173;28;20450;-72
2022/07/26 04:39:42;;;;;;;20.02;5.80;;;19.40;99.90;;;;;;5074729;28;20047;-71
2022/07/26 04:42:08;;;;;;;25.58;6.63;;;19.20;99.90;;;;;;5074452;28;20070;-72
2022/07/26 04:44:34;;;;;;;28.75;6.20;;;19.10;99.90;;;;;;5074624;28;20063;-69
2022/07/26 04:47:00;;;;;;;24.45;6.43;;;19.30;99.90;;;;;;5074380;28;20048;-69
2022/07/26 04:49:26;;;;;;;25.67;6.57;;;18.90;99.90;;;;;;5074785;28;20032;-72
2022/07/26 04:51:52;;;;;;;26.35;6.50;;;19.10;99.90;;;;;;5074442;28;20040;-67
2022/07/26 04:54:21;;;;;;;28.33;6.15;;;19.20;99.90;;;;;;5074991;28;20389;-68
2022/07/26 04:56:48;;;;;;;24.25;6.68;;;19.20;99.90;;;;;;5074108;28;20090;-68
2022/07/26 04:59:14;;;;;;;20.83;6.15;;;19.00;99.90;;;;;;5074536;28;20043;-69
2022/07/26 05:01:40;;;;;;;26.30;6.68;;;18.80;99.90;;;;;;5074413;28;20537;-68
2022/07/26 05:04:05;;;;;;;24.92;6.55;;;19.20;99.90;;;;;;5074332;28;20108;-71
2022/07/26 05:06:31;;;;;;;18.98;5.32;;;19.00;99.90;;;;;;5073736;28;20382;-70
2022/07/26 05:08:58;;;;;;;25.98;6.80;;;18.80;99.90;;;;;;5074328;28;20472;-64
2022/07/26 05:11:24;;;;;;;23.20;6.28;;;18.80;99.90;;;;;;5073795;28;20016;-72
2022/07/26 05:13:50;;;;;;;21.77;6.20;;;18.90;99.90;;;;;;5074114;28;20021;-73
2022/07/26 05:16:15;;;;;;;23.13;5.65;;;18.70;99.90;;;;;;5073909;28;20028;-72
2022/07/26 05:18:41;;;;;;;23.50;6.22;;;18.70;99.90;;;;;;5074185;28;20025;-72
2022/07/26 05:21:07;;;;;;;25.25;6.25;;;18.60;99.90;;;;;;5055973;28;20031;-72
2022/07/26 05:23:48;;;;;;;22.17;5.93;;;18.70;99.90;;;;;;5040573;28;20499;-71
2022/07/26 05:26:14;;;;;;;22.70;6.25;;;18.60;99.90;;;;;;5055663;28;20040;-72
2022/07/26 05:28:40;;;;;;;26.85;6.65;;;18.70;99.90;;;;;;5073807;28;20017;-71
2022/07/26 05:31:06;;;;;;;20.67;6.70;;;19.00;99.90;;;;;;5073741;28;20120;-72
2022/07/26 05:33:32;;;;;;;30.45;6.82;;;19.00;99.90;;;;;;5073790;28;20059;-72
2022/07/26 05:35:58;;;;;;;26.23;7.55;;;18.80;99.90;;;;;;5073619;28;20039;-72
2022/07/26 05:38:24;;;;;;;32.17;6.75;;;19.10;99.90;;;;;;5073620;28;20086;-72
2022/07/26 05:40:50;;;;;;;28.77;6.78;;;19.00;99.90;;;;;;5073485;28;20095;-71
2022/07/26 05:43:16;;;;;;;23.48;6.22;;;18.90;99.90;;;;;;5073520;28;20115;-72
2022/07/26 05:45:41;;;;;;;24.13;6.38;;;18.80;99.90;;;;;;5073405;28;20479;-72
2022/07/26 05:48:07;;;;;;;19.80;6.03;;;18.80;99.90;;;;;;5073284;28;20036;-72
2022/07/26 05:50:33;;;;;;;22.33;6.25;;;18.80;99.90;;;;;;5055875;28;20020;-72
2022/07/26 05:52:59;;;;;;;18.85;5.63;;;18.80;99.90;;;;;;5073197;28;20464;-69
2022/07/26 05:55:25;;;;;;;24.60;6.43;;;19.10;99.90;;;;;;5072941;28;20036;-70
2022/07/26 05:57:51;;;;;;;19.27;6.38;;;19.20;99.90;;;;;;5073143;28;20085;-64
2022/07/26 06:00:17;;;;;;;20.15;5.78;;;19.20;99.90;;;;;;5073345;28;20017;-73
2022/07/26 06:02:43;;;;;;;15.63;5.57;;;19.50;99.90;;;;;;5067323;28;20100;-63
2022/07/26 06:05:09;;;;;;;22.38;6.10;;;19.30;99.90;;;;;;5061678;28;20112;-71
2022/07/26 06:07:35;;;;;;;19.85;6.00;;;19.50;99.90;;;;;;5070939;28;20066;-72
2022/07/26 06:10:01;;;;;;;20.35;5.85;;;19.50;99.90;;;;;;5085561;28;20059;-75
2022/07/26 06:12:26;;;;;;;14.07;5.00;;;19.40;99.90;;;;;;5084185;28;20601;-67
2022/07/26 06:14:52;;;;;;;12.40;4.72;;;19.90;99.90;;;;;;5080643;28;20527;-68
2022/07/26 06:17:18;;;;;;;17.48;4.55;;;19.90;99.90;;;;;;5077777;28;20035;-65
2022/07/26 06:19:44;;;;;;;17.35;4.57;;;19.70;99.90;;;;;;5085353;28;20499;-70
2022/07/26 06:22:09;;;;;;;18.02;4.32;;;19.60;99.90;;;;;;5085790;28;20044;-72
2022/07/26 06:24:35;;;;;;;11.40;3.05;;;19.70;99.90;;;;;;5082851;28;20381;-66
2022/07/26 06:27:01;;;;;;;11.10;2.72;;;19.60;99.90;;;;;;5074815;28;20024;-74
2022/07/26 06:29:26;;;;;;;17.98;2.85;;;19.60;99.90;;;;;;5072901;28;20016;-72
2022/07/26 06:31:52;;;;;;;13.30;2.90;;;19.90;99.90;;;;;;5084782;28;20019;-76
2022/07/26 06:34:18;;;;;;;12.07;2.97;;;19.90;99.90;;;;;;5080940;28;20357;-65
2022/07/26 06:36:44;;;;;;;13.75;2.78;;;19.70;99.90;;;;;;5074060;28;20101;-77
2022/07/26 06:39:10;;;;;;;9.60;2.90;;;19.90;99.90;;;;;;5071157;28;20027;-76
2022/07/26 06:41:36;;;;;;;8.77;2.55;;;19.90;99.90;;;;;;5071004;28;20020;-73
2022/07/26 06:44:02;;;;;;;11.13;2.60;;;19.80;99.90;;;;;;5069921;28;20400;-65
2022/07/26 06:46:28;;;;;;;12.90;2.22;;;19.80;99.90;;;;;;5077485;28;20473;-65
2022/07/26 06:48:54;;;;;;;11.13;2.67;;;19.70;99.90;;;;;;5077546;28;20040;-73
2022/07/26 06:51:21;;;;;;;9.55;2.65;;;19.70;99.90;;;;;;5075971;28;20032;-66
2022/07/26 06:53:47;;;;;;;18.42;2.72;;;19.70;99.90;;;;;;5054258;28;20381;-69
2022/07/26 06:56:13;;;;;;;11.05;2.67;;;19.70;99.90;;;;;;5071785;28;20024;-74
2022/07/26 06:58:41;;;;;;;6.57;2.03;;;19.90;99.90;;;;;;5071349;28;20044;-77
2022/07/26 07:01:06;;;;;;;12.15;2.30;;;20.00;99.90;;;;;;5071800;28;20094;-66
2022/07/26 07:03:32;;;;;;;12.02;2.55;;;20.00;99.90;;;;;;5075379;28;20560;-68
2022/07/26 07:05:58;;;;;;;12.35;2.20;;;20.40;99.90;;;;;;5071485;28;20016;-70
2022/07/26 07:08:24;;;;;;;5.07;2.00;;;20.20;99.90;;;;;;5071482;28;20385;-71
2022/07/26 07:10:51;;;;;;;8.25;2.22;;;20.10;99.90;;;;;;5084334;28;20020;-72
2022/07/26 07:13:17;;;;;;;13.52;2.33;;;20.20;99.90;;;;;;5079520;28;20024;-71
2022/07/26 07:15:43;;;;;;;11.48;2.42;;;20.30;99.90;;;;;;5070852;28;20031;-67
2022/07/26 07:18:09;;;;;;;11.93;3.17;;;20.20;99.90;;;;;;5070070;28;20036;-71
2022/07/26 07:20:35;;;;;;;13.15;2.30;;;20.00;99.90;;;;;;5070371;28;20059;-71
2022/07/26 07:23:01;;;;;;;13.32;2.60;;;20.00;99.90;;;;;;5052869;28;20435;-66
2022/07/26 07:25:26;;;;;;;13.02;2.60;;;20.10;99.90;;;;;;5071214;28;20097;-66
2022/07/26 07:27:52;;;;;;;11.20;2.95;;;20.00;99.90;;;;;;5054537;28;20071;-68
2022/07/26 07:30:18;;;;;;;16.60;2.80;;;20.00;99.90;;;;;;5076171;28;20025;-64
2022/07/26 07:32:44;;;;;;;12.02;2.25;;;20.30;99.90;;;;;;5076318;28;20469;-72
2022/07/26 07:35:10;;;;;;;17.02;2.63;;;20.30;99.90;;;;;;5075237;28;20023;-63
2022/07/26 07:37:35;;;;;;;10.77;2.17;;;20.60;99.90;;;;;;5075942;28;20476;-63
2022/07/26 07:40:05;;;;;;;13.48;2.92;;;20.60;99.90;;;;;;5075874;28;20024;-71
2022/07/26 07:42:31;;;;;;;7.68;2.45;;;20.80;99.90;;;;;;5076505;28;20029;-71
2022/07/26 07:44:56;;;;;;;7.55;2.33;;;20.80;99.90;;;;;;5085548;28;20077;-64
2022/07/26 07:47:22;;;;;;;9.13;2.00;;;20.50;99.90;;;;;;5076627;28;20040;-64
2022/07/26 07:49:48;;;;;;;10.60;2.45;;;20.40;99.90;;;;;;5075932;28;20023;-63
2022/07/26 07:52:14;;;;;;;17.20;2.75;;;20.60;99.90;;;;;;5076483;28;20032;-65
2022/07/26 07:54:40;;;;;;;9.52;2.00;;;20.80;99.90;;;;;;5076675;28;20024;-70
2022/07/26 07:57:05;;;;;;;6.20;1.73;;;20.90;99.90;;;;;;5076578;28;20036;-63
2022/07/26 07:59:31;;;;;;;8.80;2.25;;;20.70;99.90;;;;;;5076490;28;20094;-71
2022/07/26 08:01:57;;;;;;;15.25;3.00;;;20.80;99.90;;;;;;5076270;28;20035;-71
2022/07/26 08:04:23;;;;;;;13.32;2.45;;;20.60;99.90;;;;;;5076661;28;20060;-63
2022/07/26 08:06:49;;;;;;;9.52;2.45;;;20.60;99.90;;;;;;5076093;28;20056;-66
2022/07/26 08:09:15;;;;;;;10.32;1.98;;;21.20;99.90;;;;;;5074980;28;20035;-69
2022/07/26 08:11:40;;;;;;;6.10;1.80;;;21.80;99.90;;;;;;5057881;28;20016;-69
2022/07/26 08:14:06;;;;;;;13.20;2.40;;;21.40;99.90;;;;;;5075200;28;20024;-64
2022/07/26 08:16:32;;;;;;;14.52;2.45;;;21.20;99.90;;;;;;5075527;28;20494;-68
2022/07/26 08:18:58;;;;;;;8.02;2.05;;;21.00;99.90;;;;;;5075306;28;20037;-71
2022/07/26 08:21:24;;;;;;;9.30;1.83;;;20.70;99.90;;;;;;5075322;28;20017;-72
2022/07/26 08:23:50;;;;;;;11.90;2.55;;;20.90;99.90;;;;;;5075096;28;20170;-64
2022/07/26 08:26:16;;;;;;;11.75;2.00;;;20.70;99.90;;;;;;5057220;28;20520;-64
2022/07/26 08:28:42;;;;;;;7.00;1.98;;;21.40;99.90;;;;;;5075557;28;20027;-64
2022/07/26 08:31:07;;;;;;;9.40;2.00;;;21.90;99.90;;;;;;5075167;28;20033;-64
2022/07/26 08:33:33;;;;;;;13.25;2.72;;;22.50;99.90;;;;;;5074606;28;20071;-71
2022/07/26 08:35:59;;;;;;;15.00;2.30;;;22.60;99.90;;;;;;5074911;28;20029;-68
2022/07/26 08:38:25;;;;;;;9.95;2.30;;;23.20;99.90;;;;;;5074678;28;20443;-65
2022/07/26 08:40:51;;;;;;;9.55;1.85;;;22.00;99.90;;;;;;5074357;28;20027;-66
2022/07/26 08:43:16;;;;;;;12.23;2.40;;;22.00;99.90;;;;;;5074821;28;20037;-68
2022/07/26 08:45:44;;;;;;;13.68;2.35;;;21.90;99.90;;;;;;5067631;28;20066;-71
2022/07/26 08:48:10;;;;;;;12.85;1.95;;;21.60;99.90;;;;;;5083761;28;20081;-64
2022/07/26 08:50:37;;;;;;;7.70;1.70;;;21.70;99.90;;;;;;5075424;28;20017;-68
2022/07/26 08:53:07;;;;;;;10.93;2.17;;;21.30;99.90;;;;;;5075172;28;20012;-71
2022/07/26 08:55:34;;;;;;;11.40;2.30;;;21.20;99.90;;;;;;5071607;28;20381;-63
2022/07/26 08:58:02;;;;;;;9.63;2.28;;;21.00;99.90;;;;;;5075110;28;20098;-65
2022/07/26 09:00:29;;;;;;;10.60;1.98;;;21.00;99.90;;;;;;5076625;28;20054;-66
2022/07/26 09:02:57;;;;;;;8.35;2.15;;;20.90;99.90;;;;;;5076177;28;20100;-64
2022/07/26 09:05:28;;;;;;;6.95;2.13;;;20.90;99.90;;;;;;5074426;28;20448;-68
2022/07/26 09:07:55;;;;;;;10.30;2.30;;;20.70;99.90;;;;;;5086706;28;20040;-63
2022/07/26 09:10:20;;;;;;;7.43;2.15;;;20.60;99.90;;;;;;5091052;28;20054;-72
2022/07/26 09:12:55;;;;;;;8.30;2.40;;;20.20;99.90;;;;;;5086629;28;20453;-63
2022/07/26 09:15:24;;;;;;;7.47;2.33;;;19.90;99.90;;;;;;5079525;28;20473;-65
2022/07/26 09:17:52;;;;;;;10.80;3.08;;;19.90;99.90;;;;;;5059842;28;20036;-69
2022/07/26 09:20:31;;;;;;;12.05;2.97;;;20.30;99.90;;;;;;5069341;28;20021;-71
2022/07/26 09:23:06;;;;;;;11.57;2.97;;;20.50;99.90;;;;;;5078692;28;20024;-64
2022/07/26 09:25:41;;;;;;;10.15;2.72;;;20.60;99.90;;;;;;5077704;28;20031;-67
2022/07/26 09:28:20;;;;;;;3.55;1.67;;;20.30;99.90;;;;;;5061889;28;20384;-63
2022/07/26 09:30:58;;;;;;;7.35;1.67;;;19.40;99.90;;;;;;5073712;28;20016;-65
2022/07/26 09:33:24;;;;;;;3.63;1.02;;;19.30;99.90;;;;;;5085060;28;20043;-70
2022/07/26 09:36:03;;;;;;;3.65;1.05;;;19.30;99.90;;;;;;5067066;28;20370;-71
2022/07/26 09:38:47;;;;;;;5.47;1.70;;;19.10;99.90;;;;;;5062059;28;20072;-63
2022/07/26 09:41:29;;;;;;;6.80;1.48;;;19.00;99.90;;;;;;5074950;28;20043;-63
2022/07/26 09:43:57;;;;;;;;;;;19.10;99.90;;;;;;5077586;28;20479;-63
2022/07/26 09:46:27;;;;;;;6.00;1.45;;;19.00;99.90;;;;;;5075039;28;19913;-65
2022/07/26 09:48:57;;;;;;;2.97;1.38;;;19.00;99.90;;;;;;5071285;28;20105;-72
2022/07/26 09:51:40;;;;;;;3.08;1.10;;;19.20;99.90;;;;;;5074723;28;20032;-64
2022/07/26 09:54:08;;;;;;;5.07;1.73;;;19.10;99.90;;;;;;5071954;28;20064;-65
2022/07/26 09:56:45;;;;;;;2.78;1.38;;;19.50;99.90;;;;;;5070672;28;20033;-67
2022/07/26 09:59:13;;;;;;;3.78;1.30;;;19.90;99.90;;;;;;5071515;28;20056;-65
2022/07/26 10:01:39;;;;;;;3.42;1.30;;;19.60;99.90;;;;;;5072163;28;20035;-63
2022/07/26 10:04:05;;;;;;;4.03;1.30;;;19.60;99.90;;;;;;5071718;28;20016;-68
2022/07/26 10:06:31;;;;;;;5.90;1.55;;;19.80;99.90;;;;;;5073117;28;20021;-68
2022/07/26 10:08:57;;;;;;;7.35;1.75;;;19.60;99.90;;;;;;5072971;28;20020;-65
2022/07/26 10:11:26;;;;;;;2.88;1.67;;;20.10;99.90;;;;;;5071494;28;20472;-64
2022/07/26 10:13:52;;;;;;;3.35;1.98;;;20.60;99.90;;;;;;5063536;28;20423;-64
2022/07/26 10:16:29;;;;;;;4.45;1.50;;;20.70;99.90;;;;;;5072751;28;20040;-65
2022/07/26 10:18:56;;;;;;;5.55;2.00;;;20.80;99.90;;;;;;5063358;28;20119;-63
2022/07/26 10:21:29;;;;;;;5.45;2.42;;;20.60;99.90;;;;;;5072876;28;20020;-63
2022/07/26 10:24:00;;;;;;;6.43;2.40;;;20.90;99.90;;;;;;5062219;28;20044;-67
2022/07/26 10:26:36;;;;;;;6.07;3.03;;;21.50;99.90;;;;;;5073018;28;20480;-67
2022/07/26 10:29:24;;;;;;;7.85;2.45;;;21.90;99.90;;;;;;5062005;28;20104;-64
2022/07/26 10:32:02;;;;;;;4.28;2.22;;;22.30;99.90;;;;;;5073567;28;20469;-71
2022/07/26 10:34:30;;;;;;;3.80;1.98;;;21.70;99.90;;;;;;5072868;28;20036;-64
2022/07/26 10:37:01;;;;;;;4.45;1.55;;;21.80;99.90;;;;;;5072406;28;20024;-63
2022/07/26 10:39:27;;;;;;;4.32;1.52;;;21.00;99.90;;;;;;5072472;28;20075;-68
2022/07/26 10:42:04;;;;;;;3.00;1.25;;;20.00;99.90;;;;;;5072694;28;20497;-71
2022/07/26 10:44:38;;;;;;;4.88;1.15;;;19.70;99.90;;;;;;5061671;28;20033;-69
2022/07/26 10:47:07;;;;;;;6.72;1.50;;;19.10;99.90;;;;;;5072290;28;20039;-66
2022/07/26 10:49:36;;;;;;;5.72;1.70;;;18.90;99.90;;;;;;5072741;28;20541;-64
2022/07/26 10:52:17;;;;;;;5.30;2.28;;;18.70;99.90;;;;;;5072481;28;20033;-65
2022/07/26 10:54:58;;;;;;;6.57;2.83;;;18.80;99.90;;;;;;5063301;28;20107;-64
2022/07/26 10:57:35;;;;;;;5.30;1.90;;;18.80;99.90;;;;;;5064871;28;20052;-64
2022/07/26 11:00:05;;;;;;;5.07;2.03;;;19.00;99.90;;;;;;5074264;28;20039;-64
2022/07/26 11:02:32;;;;;;;5.25;3.30;;;18.70;99.90;;;;;;5072134;28;20090;-64
2022/07/26 11:04:59;;;;;;;4.97;3.67;;;18.80;99.90;;;;;;5075436;28;20016;-64
2022/07/26 11:07:26;;;;;;;9.02;2.97;;;18.80;99.90;;;;;;5084779;28;20037;-63
2022/07/26 11:09:59;;;;;;;4.05;1.80;;;18.80;99.90;;;;;;5086599;28;20044;-68
2022/07/26 11:12:25;;;;;;;9.25;1.65;;;18.60;99.90;;;;;;5073170;28;20032;-68
2022/07/26 11:14:52;;;;;;;5.22;1.45;;;18.70;99.90;;;;;;5079802;28;20020;-72
2022/07/26 11:17:23;;;;;;;4.90;1.27;;;18.50;99.90;;;;;;5076354;28;20041;-65
2022/07/26 11:19:48;;;;;;;2.78;0.90;;;18.80;99.90;;;;;;5088119;28;20468;-69
2022/07/26 11:22:14;;;;;;;4.65;0.85;;;18.70;99.90;;;;;;5088339;28;20072;-68
2022/07/26 11:24:40;;;;;;;1.90;0.95;;;18.80;99.90;;;;;;5066499;28;20024;-70
2022/07/26 11:27:06;;;;;;;4.57;0.98;;;18.90;99.90;;;;;;5076980;28;20024;-64
2022/07/26 11:29:33;;;;;;;2.40;1.13;;;19.20;99.90;;;;;;5075230;28;20032;-67
2022/07/26 11:32:00;;;;;;;6.57;1.38;;;19.50;99.90;;;;;;5087822;28;20024;-64
2022/07/26 11:34:29;;;;;;;4.55;1.70;;;19.70;99.90;;;;;;5088031;28;20031;-64
2022/07/26 11:36:56;;;;;;;2.08;1.88;;;20.10;99.90;;;;;;5080753;28;20016;-65
2022/07/26 11:39:24;;;;;;;4.00;1.88;;;20.80;99.90;;;;;;5077275;28;20028;-64
2022/07/26 11:42:00;;;;;;;2.72;1.55;;;20.30;99.90;;;;;;5092331;28;20028;-73
2022/07/26 11:44:27;;;;;;;4.43;1.58;;;20.40;99.90;;;;;;5070904;28;20046;-67
2022/07/26 11:46:52;;;;;;;8.07;2.42;;;20.00;99.90;;;;;;5084650;28;20062;-64
2022/07/26 11:49:28;;;;;;;6.63;2.70;;;19.50;99.90;;;;;;5078122;28;20436;-68
2022/07/26 11:52:01;;;;;;;9.25;2.33;;;19.30;99.90;;;;;;5075856;28;20031;-64
2022/07/26 11:54:49;;;;;;;10.27;3.00;;;18.80;99.90;;;;;;5091087;28;20107;-73
2022/07/26 11:57:16;;;;;;;9.60;2.58;;;18.90;99.90;;;;;;5076999;28;20036;-63
2022/07/26 11:59:44;;;;;;;8.07;2.20;;;19.00;99.90;;;;;;5075046;28;20024;-70
2022/07/26 12:02:11;;;;;;;5.50;1.95;;;19.20;99.90;;;;;;5077205;28;20108;-71
2022/07/26 12:04:40;;;;;;;8.13;2.60;;;19.20;99.90;;;;;;5074638;28;20498;-69
2022/07/26 12:07:12;;;;;;;9.35;3.45;;;19.50;99.90;;;;;;5083602;28;20028;-66
2022/07/26 12:09:51;;;;;;;10.63;2.90;;;19.60;99.90;;;;;;5083550;28;20036;-63
2022/07/26 12:12:29;;;;;;;5.63;2.58;;;19.10;99.90;;;;;;5085972;28;20490;-71
2022/07/26 12:15:00;;;;;;;8.55;2.85;;;19.10;99.90;;;;;;5078316;28;20400;-70
2022/07/26 12:17:26;;;;;;;13.88;2.60;;;19.70;99.90;;;;;;5078973;28;20059;-72
2022/07/26 12:19:52;;;;;;;8.52;2.58;;;19.80;99.90;;;;;;5088553;28;20477;-72
2022/07/26 12:22:20;;;;;;;14.43;3.22;;;20.10;99.90;;;;;;5087894;28;20081;-64
2022/07/26 12:24:52;;;;;;;11.52;2.97;;;20.10;99.90;;;;;;5082466;28;20400;-64
2022/07/26 12:27:25;;;;;;;10.25;3.00;;;20.50;99.90;;;;;;5076393;28;20029;-71
2022/07/26 12:30:12;;;;;;;9.90;2.45;;;20.70;99.90;;;;;;5074086;28;20376;-66
2022/07/26 12:32:42;;;;;;;10.85;2.60;;;20.70;99.90;;;;;;5071100;28;20043;-64
2022/07/26 12:35:24;;;;;;;3.97;2.05;;;20.70;99.90;;;;;;5076128;28;20040;-64
2022/07/26 12:37:52;;;;;;;9.65;2.80;;;20.60;99.90;;;;;;5078333;28;20029;-64
2022/07/26 12:40:26;;;;;;;8.32;2.40;;;20.30;99.90;;;;;;5078488;28;20046;-64
2022/07/26 12:42:58;;;;;;;11.25;2.70;;;20.70;99.90;;;;;;5090522;28;20093;-64
2022/07/26 12:45:34;;;;;;;11.63;3.13;;;20.60;99.90;;;;;;5065843;28;20381;-66
2022/07/26 12:48:05;;;;;;;9.82;2.95;;;20.50;99.90;;;;;;5081171;28;20028;-64